Time;durP1;ratioP1;P1;durP2;ratioP2;P2;SDS_P1;SDS_P2;PMS_P1;PMS_P2;Temp;Humidity;BMP_temperature;BMP_pressure;BME280_temperature;BME280_humidity;BME280_pressure;Samples;Min_cycle;Max_cycle;Signal;HPM_P1;HPM_P2
2022/06/06 00:00:10;;;;;;;2.42;1.98;;;;;;;18.94;51.56;98662.00;4516572;31;20148;-71
2022/06/06 00:02:37;;;;;;;;;;;;;;;18.91;51.79;98671.19;4517088;31;20457;-71
2022/06/06 00:05:06;;;;;;;2.37;2.17;;;;;;;18.87;51.67;98672.59;4516577;31;19974;-71
2022/06/06 00:07:33;;;;;;;2.83;2.10;;;;;;;18.88;51.91;98676.06;4516377;31;20158;-71
2022/06/06 00:10:03;;;;;;;5.18;2.00;;;;;;;18.84;52.35;98677.44;4516443;31;20087;-71
2022/06/06 00:12:30;;;;;;;3.92;2.10;;;;;;;18.79;51.83;98675.37;4516507;31;20099;-71
2022/06/06 00:14:58;;;;;;;2.47;2.22;;;;;;;18.78;52.35;98669.22;4516704;31;20102;-71
2022/06/06 00:17:25;;;;;;;2.33;1.90;;;;;;;18.77;52.72;98664.09;4516539;31;20092;-71
2022/06/06 00:19:52;;;;;;;2.80;2.20;;;;;;;18.72;52.87;98669.19;4516396;31;20155;-71
2022/06/06 00:22:19;;;;;;;3.17;2.62;;;;;;;18.65;53.00;98657.69;4516139;31;20092;-71
2022/06/06 00:24:47;;;;;;;3.03;2.00;;;;;;;18.68;52.82;98662.63;4516330;31;20373;-71
2022/06/06 00:27:14;;;;;;;3.22;2.47;;;;;;;18.58;52.92;98663.75;4516235;31;20126;-71
2022/06/06 00:29:41;;;;;;;2.20;1.90;;;;;;;18.57;53.62;98674.56;4516343;31;20083;-71
2022/06/06 00:34:55;;;;;;;2.90;2.22;;;;;;;18.47;53.63;98692.63;4499314;31;20088;-71
2022/06/06 00:37:25;;;;;;;4.15;2.47;;;;;;;18.43;54.01;98697.50;4500255;31;20134;-71
2022/06/06 00:39:54;;;;;;;3.97;2.30;;;;;;;18.36;54.73;98701.91;4500046;31;20110;-71
2022/06/06 00:42:25;;;;;;;4.03;2.25;;;;;;;18.30;54.64;98706.13;4500300;31;20092;-71
2022/06/06 00:45:14;;;;;;;3.30;2.33;;;;;;;18.29;55.00;98711.63;4500413;31;20076;-71
2022/06/06 00:47:43;;;;;;;2.85;2.20;;;;;;;18.18;55.10;98715.59;4500085;31;20482;-71
2022/06/06 00:50:14;;;;;;;3.85;2.12;;;;;;;18.19;55.70;98719.91;4500078;31;20385;-71
2022/06/06 00:52:44;;;;;;;2.97;2.42;;;;;;;18.11;55.73;98725.31;4498912;31;20144;-71
2022/06/06 00:55:17;;;;;;;3.22;2.58;;;;;;;18.04;56.13;98726.06;4500035;31;20084;-71
2022/06/06 00:58:05;;;;;;;3.67;2.58;;;;;;;17.96;56.77;98733.31;4498854;31;20148;-71
2022/06/06 01:00:32;;;;;;;3.08;2.67;;;;;;;17.85;56.72;98740.69;4500174;31;20087;-71
2022/06/06 01:03:02;;;;;;;3.42;2.78;;;;;;;17.88;57.33;98753.56;4499966;31;20155;-71
2022/06/06 01:05:30;;;;;;;3.87;3.00;;;;;;;17.86;57.19;98747.62;4500079;31;20096;-71
2022/06/06 01:07:57;;;;;;;3.17;2.87;;;;;;;17.74;57.57;98735.84;4499708;31;20088;-71
2022/06/06 01:10:24;;;;;;;4.60;2.72;;;;;;;17.70;57.68;98727.47;4499541;31;20139;-71
2022/06/06 01:12:53;;;;;;;3.35;2.97;;;;;;;17.64;58.20;98724.72;4499903;31;20096;-71
2022/06/06 01:15:23;;;;;;;6.55;2.67;;;;;;;17.62;58.22;98727.53;4498353;31;20084;-71
2022/06/06 01:18:26;;;;;;;4.55;3.00;;;;;;;17.60;58.34;98726.09;4500082;31;20449;-71
2022/06/06 01:21:21;;;;;;;3.10;2.60;;;;;;;17.55;58.72;98738.06;4498788;31;20097;-71
2022/06/06 01:23:54;;;;;;;2.97;2.58;;;;;;;17.48;59.12;98736.31;4499597;31;20099;-71
2022/06/06 01:26:31;;;;;;;3.17;2.70;;;;;;;17.46;59.19;98736.50;4499785;31;20444;-71
2022/06/06 01:29:01;;;;;;;2.50;2.30;;;;;;;17.37;59.63;98740.25;4499456;31;20394;-71
2022/06/06 01:31:37;;;;;;;3.28;2.87;;;;;;;17.35;59.88;98740.44;4498058;31;20126;-71
2022/06/06 01:34:06;;;;;;;4.57;3.10;;;;;;;17.40;60.11;98749.66;4498539;31;20089;-71
2022/06/06 01:36:35;;;;;;;3.87;2.70;;;;;;;17.43;59.95;98757.25;4499373;31;20111;-71
2022/06/06 01:39:09;;;;;;;3.12;2.78;;;;;;;17.43;60.20;98781.09;4499236;31;20100;-71
2022/06/06 01:41:36;;;;;;;3.33;2.72;;;;;;;17.43;60.16;98797.78;4498005;31;20140;-71
2022/06/06 01:44:20;;;;;;;4.35;3.25;;;;;;;17.41;60.17;98814.84;4499536;31;20092;-71
2022/06/06 01:46:48;;;;;;;4.22;3.10;;;;;;;17.33;60.64;98831.62;4501702;31;20084;-71
2022/06/06 01:49:16;;;;;;;5.12;2.87;;;;;;;17.30;61.54;98861.12;4500443;31;20092;-71
2022/06/06 01:51:58;;;;;;;7.37;2.92;;;;;;;17.25;62.73;98885.50;4500335;31;20164;-71
2022/06/06 01:54:25;;;;;;;3.00;2.72;;;;;;;17.20;62.48;98909.03;4502143;31;20084;-71
2022/06/06 01:56:53;;;;;;;6.95;3.17;;;;;;;17.23;62.19;98923.72;4501627;31;20083;-71
2022/06/06 01:59:20;;;;;;;4.43;3.22;;;;;;;17.23;62.21;98932.50;4501728;31;20759;-71
2022/06/06 02:01:48;;;;;;;3.30;3.00;;;;;;;17.20;62.33;98925.72;4501505;31;20092;-71
2022/06/06 02:04:15;;;;;;;4.10;2.97;;;;;;;17.20;62.11;98916.97;4501762;31;20092;-71
2022/06/06 02:06:42;;;;;;;3.33;2.80;;;;;;;17.20;62.74;98920.44;4501639;31;20156;-71
2022/06/06 02:09:10;;;;;;;4.45;2.90;;;;;;;17.17;62.74;98925.28;4501190;31;20123;-71
2022/06/06 02:11:37;;;;;;;8.00;4.12;;;;;;;17.18;62.78;98906.56;4501489;31;20100;-71
2022/06/06 02:14:05;;;;;;;6.28;3.35;;;;;;;17.22;62.84;98896.44;4501914;31;20140;-71
2022/06/06 02:16:32;;;;;;;5.28;3.20;;;;;;;17.20;62.46;98879.91;4501395;31;20103;-71
2022/06/06 02:19:00;;;;;;;3.47;3.00;;;;;;;17.14;62.85;98868.19;4501679;31;20156;-71
2022/06/06 02:21:27;;;;;;;3.90;3.05;;;;;;;17.08;63.26;98863.63;4501372;31;20099;-71
2022/06/06 02:23:54;;;;;;;6.15;3.05;;;;;;;17.12;63.25;98875.50;4501669;31;20088;-71
2022/06/06 02:26:22;;;;;;;3.53;3.22;;;;;;;17.04;63.59;98880.84;4501383;31;20114;-71
2022/06/06 02:28:49;;;;;;;6.40;3.33;;;;;;;17.04;64.26;98875.53;4501290;31;20129;-71
2022/06/06 02:31:17;;;;;;;5.32;2.95;;;;;;;16.90;66.15;98881.63;4507112;31;20555;-71
2022/06/06 02:33:44;;;;;;;3.70;3.35;;;;;;;16.77;66.60;98882.94;4517356;31;20118;-71
2022/06/06 02:36:12;;;;;;;3.70;3.33;;;;;;;16.72;66.17;98877.38;4503001;31;20079;-71
2022/06/06 02:38:39;;;;;;;4.62;3.22;;;;;;;16.60;66.60;98866.34;4517025;31;20099;-71
2022/06/06 02:41:10;;;;;;;3.83;2.90;;;;;;;16.65;66.37;98865.81;4517255;31;20099;-71
2022/06/06 02:43:39;;;;;;;3.37;3.05;;;;;;;16.67;66.40;98858.56;4517244;31;20437;-71
2022/06/06 02:46:08;;;;;;;4.18;3.15;;;;;;;16.67;66.49;98861.22;4517246;31;20143;-71
2022/06/06 02:48:36;;;;;;;4.07;3.20;;;;;;;16.70;66.20;98852.94;4517054;31;20160;-71
2022/06/06 02:51:04;;;;;;;3.20;2.90;;;;;;;16.74;66.26;98859.50;4517133;31;20099;-71
2022/06/06 02:53:31;;;;;;;3.83;3.28;;;;;;;16.87;65.59;98868.72;4516945;31;20132;-71
2022/06/06 02:55:59;;;;;;;4.65;3.10;;;;;;;16.89;65.34;98869.38;4517086;31;20425;-71
2022/06/06 02:58:27;;;;;;;3.42;3.03;;;;;;;16.90;65.17;98865.72;4517127;31;20446;-71
2022/06/06 03:01:06;;;;;;;4.20;3.00;;;;;;;16.92;65.38;98869.03;4517102;31;20123;-71
2022/06/06 03:03:34;;;;;;;3.45;3.05;;;;;;;16.94;65.34;98877.59;4517116;31;20071;-71
2022/06/06 03:06:04;;;;;;;3.85;2.80;;;;;;;16.92;65.73;98863.72;4517114;31;20095;-71
2022/06/06 03:09:03;;;;;;;4.60;3.00;;;;;;;16.94;65.20;98854.62;4516802;31;20091;-71
2022/06/06 03:12:04;;;;;;;4.65;2.65;;;;;;;16.84;65.64;98857.44;4502797;31;20100;-71
2022/06/06 03:14:35;;;;;;;4.10;3.53;;;;;;;16.82;66.44;98864.75;4517031;31;20117;-71
2022/06/06 03:23:13;;;;;;;3.20;2.85;;;;;;;16.79;66.93;98843.94;4451358;32;20139;-71
2022/06/06 03:26:11;;;;;;;4.15;3.00;;;;;;;16.84;66.51;98836.28;4451713;32;20481;-71
2022/06/06 03:29:02;;;;;;;5.55;3.45;;;;;;;16.92;66.07;98837.25;4438551;32;20298;-71
2022/06/06 03:31:57;;;;;;;3.47;3.17;;;;;;;16.92;65.35;98827.50;4444621;32;20105;-71
2022/06/06 03:34:24;;;;;;;6.07;2.97;;;;;;;16.99;65.55;98827.63;4436079;32;20143;-71
2022/06/06 03:36:54;;;;;;;5.72;3.53;;;;;;;16.93;65.95;98823.03;4436034;32;20261;-71
2022/06/06 03:39:46;;;;;;;3.28;2.97;;;;;;;16.92;65.85;98822.19;4435833;32;20121;-71
2022/06/06 03:42:31;;;;;;;3.85;3.45;;;;;;;16.91;66.04;98811.78;4423397;32;20450;-71
2022/06/06 03:45:10;;;;;;;4.70;3.40;;;;;;;16.87;66.72;98808.69;4436139;32;20117;-71
2022/06/06 03:47:47;;;;;;;5.80;3.37;;;;;;;16.84;66.80;98801.06;4423339;32;20102;-71
2022/06/06 03:50:35;;;;;;;5.90;3.58;;;;;;;16.85;66.94;98795.59;4435900;32;20111;-71
2022/06/06 03:53:10;;;;;;;6.87;3.55;;;;;;;16.84;66.97;98787.84;4435898;32;20132;-71
2022/06/06 03:56:08;;;;;;;4.87;3.28;;;;;;;16.82;67.63;98788.03;4423687;32;20136;-71
2022/06/06 03:58:36;;;;;;;5.55;2.97;;;;;;;16.76;67.83;98787.88;4483531;32;20169;-71
2022/06/06 04:01:06;;;;;;;3.97;3.20;;;;;;;16.79;68.01;98795.47;4483747;32;20088;-71
2022/06/06 04:03:34;;;;;;;4.35;3.42;;;;;;;16.79;68.05;98804.25;4483567;32;20123;-71
2022/06/06 04:06:03;;;;;;;3.53;3.10;;;;;;;16.88;67.86;98809.50;4485013;31;20480;-71
2022/06/06 04:08:32;;;;;;;5.90;3.10;;;;;;;16.80;68.71;98811.16;4483963;31;20888;-71
2022/06/06 04:11:25;;;;;;;5.20;3.60;;;;;;;16.81;68.41;98815.47;4484843;32;20201;-71
2022/06/06 04:14:05;;;;;;;5.43;3.15;;;;;;;16.84;68.58;98816.94;4483631;32;20153;-71
2022/06/06 04:16:35;;;;;;;4.80;3.35;;;;;;;16.86;69.18;98822.88;4484891;32;20116;-71
2022/06/06 04:19:11;;;;;;;4.57;3.42;;;;;;;16.88;69.34;98820.94;4484720;31;20188;-71
2022/06/06 04:22:03;;;;;;;3.65;3.03;;;;;;;16.90;69.01;98823.41;4484787;31;20106;-71
2022/06/06 04:24:48;;;;;;;3.30;3.00;;;;;;;16.95;69.25;98829.78;4483528;32;20127;-71
2022/06/06 04:27:22;;;;;;;3.60;3.30;;;;;;;17.02;68.26;98833.38;4484824;32;20110;-71
2022/06/06 04:29:58;;;;;;;5.22;3.37;;;;;;;17.14;68.35;98836.44;4484611;31;20498;-71
2022/06/06 04:32:49;;;;;;;6.20;3.58;;;;;;;17.12;67.41;98838.44;4483229;32;20156;-71
2022/06/06 04:35:31;;;;;;;4.18;3.03;;;;;;;17.03;68.20;98832.38;4484590;31;20118;-71
2022/06/06 04:38:15;;;;;;;4.25;3.60;;;;;;;17.02;68.20;98835.22;4484556;31;20100;-71
2022/06/06 04:41:06;;;;;;;5.00;3.37;;;;;;;17.08;67.63;98849.53;4484357;31;20528;-71
2022/06/06 04:44:12;;;;;;;3.92;3.17;;;;;;;17.09;67.99;98843.25;4484548;31;20430;-71
2022/06/06 04:46:59;;;;;;;3.50;3.08;;;;;;;17.13;66.71;98840.06;4484523;31;20462;-71
2022/06/06 04:49:28;;;;;;;4.72;3.75;;;;;;;17.18;67.53;98840.38;4484271;31;20174;-71
2022/06/06 04:51:58;;;;;;;5.05;3.75;;;;;;;17.24;70.21;98845.94;4484248;31;20096;-71
2022/06/06 04:54:25;;;;;;;4.43;3.80;;;;;;;17.35;73.77;98848.16;4484269;31;20141;-71
2022/06/06 04:56:55;;;;;;;5.57;4.60;;;;;;;17.40;79.53;98847.66;4496013;31;20101;-71
2022/06/06 04:59:23;;;;;;;6.62;4.53;;;;;;;17.52;84.57;98849.69;4495741;31;20108;-71
2022/06/06 05:01:50;;;;;;;8.95;4.93;;;;;;;17.58;87.22;98834.91;4482862;32;20593;-71
2022/06/06 05:04:18;;;;;;;5.25;4.70;;;;;;;17.60;89.02;98840.00;4495779;31;20084;-71
2022/06/06 05:06:57;;;;;;;6.60;4.57;;;;;;;17.77;89.26;98851.25;4484167;31;20097;-71
2022/06/06 05:09:46;;;;;;;6.97;5.15;;;;;;;17.94;89.39;98851.94;4483602;31;20084;-71
2022/06/06 05:12:35;;;;;;;5.68;4.87;;;;;;;17.98;89.58;98853.22;4484038;31;20440;-71
2022/06/06 05:15:17;;;;;;;9.20;5.25;;;;;;;18.11;89.96;98847.25;4483844;31;20096;-71
2022/06/06 05:18:27;;;;;;;8.20;5.25;;;;;;;18.29;89.93;98852.19;4483979;31;20105;-71
2022/06/06 05:20:57;;;;;;;8.35;4.95;;;;;;;18.49;89.92;98860.41;4454303;32;20125;-71
2022/06/06 05:23:36;;;;;;;6.10;4.70;;;;;;;18.56;88.98;98856.81;4467592;32;20138;-71
2022/06/06 05:26:18;;;;;;;5.47;4.78;;;;;;;18.44;89.74;98856.47;4467840;32;20789;-71
2022/06/06 05:29:08;;;;;;;5.18;4.68;;;;;;;18.43;90.31;98864.63;4467843;32;20120;-71
2022/06/06 05:31:59;;;;;;;7.57;5.07;;;;;;;18.42;90.10;98860.31;4440225;32;20860;-71
2022/06/06 05:34:42;;;;;;;8.20;5.50;;;;;;;18.41;89.84;98858.66;4424138;32;20096;-71
2022/06/06 05:37:26;;;;;;;5.85;4.93;;;;;;;18.44;90.41;98866.28;4424407;32;20112;-71
2022/06/06 05:40:33;;;;;;;6.45;5.22;;;;;;;18.66;89.76;98866.31;4436582;32;20109;-71
2022/06/06 05:43:40;;;;;;;7.45;6.05;;;;;;;18.75;89.59;98862.53;4391087;32;20609;-71
2022/06/06 05:46:16;;;;;;;7.80;5.68;;;;;;;18.78;89.77;98865.63;4390905;32;20106;-71
2022/06/06 05:48:54;;;;;;;9.20;5.47;;;;;;;18.75;89.71;98867.84;4390965;32;20844;-71
2022/06/06 05:51:42;;;;;;;7.87;5.80;;;;;;;18.84;89.18;98868.56;4378568;32;20156;-71
2022/06/06 05:54:32;;;;;;;7.97;5.47;;;;;;;18.76;89.08;98874.81;4391025;32;20140;-71
2022/06/06 05:57:15;;;;;;;6.85;5.60;;;;;;;18.75;89.74;98873.97;4403084;32;20231;-71
2022/06/06 06:00:05;;;;;;;11.95;5.47;;;;;;;18.92;88.88;98877.22;4424002;32;20529;-71
2022/06/06 06:02:49;;;;;;;7.25;5.60;;;;;;;19.12;88.39;98879.25;4432243;32;20459;-71
2022/06/06 06:05:55;;;;;;;8.30;5.55;;;;;;;19.14;88.07;98875.41;4436587;32;20185;-71
2022/06/06 06:08:44;;;;;;;7.37;5.50;;;;;;;19.35;87.26;98876.44;4390834;32;20217;-71
2022/06/06 06:11:37;;;;;;;9.68;5.22;;;;;;;19.36;86.72;98877.25;4390785;32;20101;-71
2022/06/06 06:14:28;;;;;;;5.78;5.05;;;;;;;19.46;86.50;98873.25;4390772;32;20099;-71
2022/06/06 06:16:59;;;;;;;6.90;5.75;;;;;;;19.72;86.28;98877.12;4390873;32;20102;-71
2022/06/06 06:19:38;;;;;;;8.57;6.00;;;;;;;19.87;85.64;98885.03;4390708;32;20136;-71
2022/06/06 06:22:07;;;;;;;10.18;6.03;;;;;;;19.71;85.80;98883.44;4383765;32;20155;-71
2022/06/06 06:24:38;;;;;;;7.68;5.75;;;;;;;19.85;84.78;98892.38;4408556;32;20124;-71
2022/06/06 06:27:06;;;;;;;8.60;6.05;;;;;;;19.86;84.90;98894.00;4408643;32;20114;-71
2022/06/06 06:29:34;;;;;;;8.05;5.95;;;;;;;19.89;84.86;98896.28;4421400;32;20494;-71
2022/06/06 06:32:31;;;;;;;7.40;5.40;;;;;;;20.08;83.19;98896.63;4420605;32;20151;-71
2022/06/06 06:35:04;;;;;;;9.38;5.55;;;;;;;20.23;82.33;98894.66;4421250;32;20729;-71
2022/06/06 06:37:43;;;;;;;9.60;5.40;;;;;;;20.28;80.61;98888.75;4420978;32;20546;-71
2022/06/06 06:40:16;;;;;;;8.68;5.80;;;;;;;20.44;79.95;98890.22;4421075;32;20136;-71
2022/06/06 06:43:17;;;;;;;8.85;5.47;;;;;;;20.56;79.84;98897.47;4408570;32;20494;-71
2022/06/06 06:45:50;;;;;;;7.65;5.57;;;;;;;20.48;79.59;98896.81;4476189;31;20165;-71
2022/06/06 06:48:24;;;;;;;7.50;5.50;;;;;;;20.64;78.06;98890.34;4501441;31;20510;-71
2022/06/06 06:51:17;;;;;;;18.00;5.90;;;;;;;20.78;78.18;98893.88;4501125;31;20122;-71
2022/06/06 06:54:09;;;;;;;6.40;5.18;;;;;;;20.87;76.80;98898.00;4501143;31;20445;-71
2022/06/06 06:57:01;;;;;;;6.87;5.30;;;;;;;20.80;76.98;98894.50;4501173;31;20504;-71
2022/06/06 07:00:08;;;;;;;9.80;5.47;;;;;;;21.00;77.24;98890.06;4500051;31;20108;-71
2022/06/06 07:09:14;;;;;;;7.10;4.80;;;;;;;21.92;71.26;98895.66;4501045;31;20104;-71
2022/06/06 07:12:10;;;;;;;5.35;4.75;;;;;;;21.89;68.80;98892.56;4492895;31;20119;-71
2022/06/06 07:14:52;;;;;;;6.70;4.30;;;;;;;22.30;68.47;98894.09;4501238;31;20425;-71
2022/06/06 07:17:21;;;;;;;5.72;4.43;;;;;;;22.64;65.83;98890.31;4501219;31;20095;-71
2022/06/06 07:19:54;;;;;;;6.75;4.15;;;;;;;22.30;66.14;98894.09;4499864;31;20575;-72
2022/06/06 07:22:22;;;;;;;5.55;3.83;;;;;;;22.47;62.89;98906.00;4499888;31;20118;-71
2022/06/06 07:24:56;;;;;;;4.15;3.45;;;;;;;22.35;61.64;98902.34;4501113;31;20453;-71
2022/06/06 07:27:23;;;;;;;4.87;3.50;;;;;;;22.22;59.03;98902.34;4499848;31;21101;-71
2022/06/06 07:29:51;;;;;;;4.00;3.60;;;;;;;22.01;58.07;98901.56;4501011;31;20116;-72
2022/06/06 07:32:42;;;;;;;4.85;3.80;;;;;;;22.23;60.15;98896.00;4488565;31;20100;-71
2022/06/06 07:35:34;;;;;;;4.28;3.20;;;;;;;22.55;52.84;98904.13;4485161;31;20110;-71
2022/06/06 07:38:31;;;;;;;4.43;3.10;;;;;;;22.66;53.63;98906.13;4485024;32;20084;-71
2022/06/06 07:41:16;;;;;;;3.12;2.83;;;;;;;22.69;51.86;98900.34;4485061;31;20093;-71
2022/06/06 07:44:10;;;;;;;3.10;2.80;;;;;;;22.49;50.70;98901.25;4484480;31;20089;-71
2022/06/06 07:46:47;;;;;;;5.00;3.35;;;;;;;22.50;50.83;98904.75;4484953;31;20096;-71
2022/06/06 07:49:14;;;;;;;3.53;2.92;;;;;;;22.93;50.46;98904.13;4485129;31;20429;-71
2022/06/06 07:51:43;;;;;;;3.12;2.83;;;;;;;23.08;49.77;98901.19;4484869;31;20092;-71
2022/06/06 07:54:37;;;;;;;7.07;3.10;;;;;;;23.46;48.51;98903.00;4485220;31;20123;-71
2022/06/06 07:57:10;;;;;;;;;;;;;;;23.20;47.50;98898.66;4484037;32;20092;-72
2022/06/06 07:59:59;;;;;;;4.07;3.27;;;;;;;23.35;46.83;98907.19;4485176;31;19987;-71
2022/06/06 08:03:05;;;;;;;4.15;3.10;;;;;;;23.72;45.60;98911.84;4484950;32;20197;-71
2022/06/06 08:05:54;;;;;;;4.03;3.20;;;;;;;23.91;46.19;98912.72;4485298;31;20487;-71
2022/06/06 08:08:43;;;;;;;4.05;3.65;;;;;;;24.15;48.40;98916.41;4484822;31;20453;-71
2022/06/06 08:11:18;;;;;;;3.87;3.50;;;;;;;23.94;51.81;98922.16;4484729;32;20082;-71
2022/06/06 08:13:52;;;;;;;6.05;4.22;;;;;;;23.84;51.45;98926.13;4483738;32;20442;-71
2022/06/06 08:16:43;;;;;;;5.68;4.12;;;;;;;23.80;51.78;98926.78;4483689;32;20100;-71
2022/06/06 08:19:35;;;;;;;4.00;3.60;;;;;;;23.58;49.49;98918.34;4483772;32;20100;-71
2022/06/06 08:22:04;;;;;;;6.10;3.90;;;;;;;23.51;50.01;98921.06;4488473;31;20083;-71
2022/06/06 08:24:43;;;;;;;4.10;3.70;;;;;;;23.25;48.38;98922.06;4502359;31;20108;-71
2022/06/06 08:27:20;;;;;;;6.32;3.90;;;;;;;23.25;49.00;98933.56;4503081;31;20701;-71
2022/06/06 08:29:48;;;;;;;4.53;4.12;;;;;;;22.94;50.03;98921.00;4516239;31;20479;-72
2022/06/06 08:32:16;;;;;;;4.57;4.07;;;;;;;22.91;51.46;98934.75;4504162;31;20096;-71
2022/06/06 08:34:43;;;;;;;5.50;4.22;;;;;;;22.97;52.14;98929.41;4500455;31;20477;-71
2022/06/06 08:37:25;;;;;;;4.93;4.40;;;;;;;22.93;51.32;98925.50;4500121;31;20097;-71
2022/06/06 08:39:55;;;;;;;6.75;4.35;;;;;;;22.88;52.66;98922.66;4500218;31;20382;-72
2022/06/06 08:42:47;;;;;;;5.47;4.00;;;;;;;23.03;52.01;98925.87;4500142;31;20107;-71
2022/06/06 08:45:21;;;;;;;7.53;4.82;;;;;;;23.14;52.34;98927.06;4500173;31;20088;-71
2022/06/06 08:47:56;;;;;;;4.93;4.43;;;;;;;22.91;53.34;98921.41;4500064;31;20088;-71
2022/06/06 08:50:45;;;;;;;6.62;5.75;;;;;;;23.04;56.11;98924.00;4500253;31;20114;-71
2022/06/06 08:53:48;;;;;;;6.80;6.10;;;;;;;23.06;59.10;98921.13;4500034;31;20088;-71
2022/06/06 08:56:21;;;;;;;8.73;5.82;;;;;;;23.18;60.04;98917.59;4501027;31;20092;-71
2022/06/06 08:59:07;;;;;;;7.37;6.12;;;;;;;23.05;62.32;98917.63;4502098;31;20118;-71
2022/06/06 09:02:12;;;;;;;13.43;7.93;;;;;;;23.05;62.73;98922.97;4502101;31;20111;-71
2022/06/06 09:04:51;;;;;;;;;;;;;;;22.66;64.74;98920.31;4501233;31;20422;-71
2022/06/06 09:07:44;;;;;;;6.57;5.85;;;;;;;22.80;65.89;98917.56;4502304;31;20364;-71
2022/06/06 09:10:30;;;;;;;8.63;6.62;;;;;;;23.00;64.38;98912.94;4501969;31;20096;-71
2022/06/06 09:13:07;;;;;;;7.37;6.00;;;;;;;22.67;62.78;98910.44;4500651;31;20115;-71
2022/06/06 09:16:03;;;;;;;6.97;5.90;;;;;;;22.93;62.06;98908.66;4502077;31;20102;-71
2022/06/06 09:18:52;;;;;;;5.68;5.10;;;;;;;23.12;60.94;98915.78;4502194;31;20100;-71
2022/06/06 09:21:28;;;;;;;7.05;5.57;;;;;;;23.10;57.94;98906.34;4502046;31;20218;-71
2022/06/06 09:23:56;;;;;;;6.35;5.32;;;;;;;23.29;57.05;98901.91;4501577;31;20122;-72
2022/06/06 09:26:57;;;;;;;25.90;6.32;;;;;;;23.24;57.26;98891.03;4501731;31;20478;-71
2022/06/06 09:29:49;;;;;;;8.05;4.90;;;;;;;23.15;57.71;98885.94;4501746;31;20103;-71
2022/06/06 09:32:56;;;;;;;7.55;5.43;;;;;;;22.87;57.12;98894.31;4513930;31;20118;-71
2022/06/06 09:35:39;;;;;;;6.90;5.00;;;;;;;22.82;58.89;98892.28;4517821;31;20087;-71
2022/06/06 09:38:13;;;;;;;6.85;5.20;;;;;;;23.28;58.04;98890.38;4517521;31;20084;-71
2022/06/06 09:40:55;;;;;;;;;;;;;;;23.17;55.91;98883.88;4518081;31;20076;-71
2022/06/06 09:43:32;;;;;;;4.65;4.18;;;;;;;23.28;52.21;98892.25;4517737;31;20330;-71
2022/06/06 09:46:21;;;;;;;5.20;3.87;;;;;;;23.44;52.95;98888.19;4517728;31;20106;-71
2022/06/06 09:49:16;;;;;;;8.32;5.45;;;;;;;23.17;53.20;98889.22;4503222;31;20083;-71
2022/06/06 09:52:05;;;;;;;6.87;5.03;;;;;;;23.15;50.91;98885.94;4517807;31;20100;-71
2022/06/06 10:01:15;;;;;;;5.05;4.53;;;;;;;24.24;49.71;98877.59;4517375;31;20088;-71
2022/06/06 10:04:18;;;;;;;5.85;4.53;;;;;;;24.25;53.08;98870.38;4494955;31;20593;-71
2022/06/06 10:06:59;;;;;;;4.70;4.20;;;;;;;23.42;52.13;98879.59;4423444;32;20135;-71
2022/06/06 10:09:56;;;;;;;5.10;4.57;;;;;;;23.49;52.40;98875.00;4423808;32;20186;-71
2022/06/06 10:12:26;;;;;;;4.40;3.70;;;;;;;24.13;49.23;98870.28;4436633;32;20150;-71
2022/06/06 10:15:17;;;;;;;4.43;2.67;;;;;;;24.11;47.50;98866.22;4436535;32;20109;-71
2022/06/06 10:18:06;;;;;;;6.62;2.80;;;;;;;24.18;44.32;98862.41;4436493;32;20158;-71
2022/06/06 10:20:53;;;;;;;4.05;3.22;;;;;;;24.18;41.26;98865.09;4436581;32;20112;-71
2022/06/06 10:23:32;;;;;;;5.45;3.22;;;;;;;24.21;42.83;98877.19;4436176;32;20146;-71
2022/06/06 10:26:27;;;;;;;6.57;3.53;;;;;;;23.83;45.10;98876.34;4424196;32;20105;-71
2022/06/06 10:29:16;;;;;;;5.00;3.62;;;;;;;23.80;45.05;98871.44;4436665;32;20122;-71
2022/06/06 10:32:00;;;;;;;5.95;3.67;;;;;;;23.94;46.26;98872.16;4436442;32;20327;-71
2022/06/06 10:35:11;;;;;;;6.22;3.53;;;;;;;24.08;46.58;98867.47;4423809;32;20179;-72
2022/06/06 10:37:58;;;;;;;5.90;3.40;;;;;;;24.30;46.00;98873.22;4436327;32;20611;-72
2022/06/06 10:40:28;;;;;;;9.00;3.50;;;;;;;24.47;42.55;98865.37;4436313;32;20645;-71
2022/06/06 10:43:04;;;;;;;6.82;3.35;;;;;;;24.71;43.19;98860.13;4448512;31;20103;-71
2022/06/06 10:45:38;;;;;;;3.65;3.35;;;;;;;25.17;41.58;98858.66;4517218;31;20083;-72
2022/06/06 10:48:15;;;;;;;3.92;3.20;;;;;;;25.30;41.84;98863.84;4502788;31;20103;-72
2022/06/06 10:51:38;;;;;;;4.85;3.20;;;;;;;25.01;41.75;98852.06;4517246;31;20079;-71
2022/06/06 10:54:35;;;;;;;4.15;3.28;;;;;;;25.10;40.96;98848.03;4517009;31;20095;-71
2022/06/06 10:57:39;;;;;;;3.20;2.90;;;;;;;24.99;39.19;98851.50;4517211;31;20491;-71
2022/06/06 11:00:16;;;;;;;5.10;2.90;;;;;;;25.14;39.32;98849.19;4517232;31;20126;-71
2022/06/06 11:03:06;;;;;;;2.75;2.55;;;;;;;25.39;37.93;98844.72;4517270;31;20114;-72
2022/06/06 11:05:43;;;;;;;3.67;2.55;;;;;;;25.28;33.62;98857.84;4502642;31;20099;-72
2022/06/06 11:08:25;;;;;;;4.25;2.47;;;;;;;25.00;33.56;98846.94;4516984;31;20430;-72
2022/06/06 11:11:29;;;;;;;3.45;2.30;;;;;;;25.03;33.86;98843.84;4516787;31;20493;-71
2022/06/06 11:14:08;;;;;;;2.80;2.55;;;;;;;25.10;34.97;98847.19;4517071;31;20103;-72
2022/06/06 11:17:00;;;;;;;3.33;2.35;;;;;;;25.35;35.31;98846.25;4502829;31;20476;-72
2022/06/06 11:19:42;;;;;;;3.28;2.92;;;;;;;25.65;33.88;98841.59;4517265;31;20140;-72
2022/06/06 11:22:33;;;;;;;3.42;2.80;;;;;;;25.28;34.12;98846.31;4516846;31;20115;-71
2022/06/06 11:25:12;;;;;;;2.90;2.70;;;;;;;25.35;34.26;98839.00;4502610;31;20130;-72
2022/06/06 11:28:11;;;;;;;3.62;2.30;;;;;;;25.61;35.84;98835.03;4517115;31;20083;-71
2022/06/06 11:30:54;;;;;;;2.47;2.28;;;;;;;25.95;33.59;98821.84;4516753;31;20071;-71
2022/06/06 11:33:36;;;;;;;3.25;2.65;;;;;;;25.70;31.97;98840.06;4516918;31;20130;-72
2022/06/06 11:36:42;;;;;;;4.70;2.72;;;;;;;25.43;34.21;98837.84;4517032;31;20501;-72
2022/06/06 11:39:19;;;;;;;2.78;2.58;;;;;;;25.84;33.48;98831.53;4451078;32;20176;-72
2022/06/06 11:42:04;;;;;;;3.83;2.50;;;;;;;26.04;32.68;98822.28;4451309;32;20423;-72
2022/06/06 11:45:13;;;;;;;2.62;2.25;;;;;;;26.15;33.70;98818.78;4451528;32;20113;-71
2022/06/06 11:47:58;;;;;;;2.62;2.42;;;;;;;26.43;33.09;98821.72;4443712;32;20109;-72
2022/06/06 11:50:48;;;;;;;2.85;2.58;;;;;;;26.62;33.16;98823.16;4451283;32;20169;-72
2022/06/06 11:53:50;;;;;;;2.60;2.40;;;;;;;26.21;29.64;98822.41;4451420;32;20096;-72
2022/06/06 11:56:39;;;;;;;2.25;2.05;;;;;;;26.48;30.27;98808.38;4438677;32;20189;-72
2022/06/06 11:59:34;;;;;;;3.10;2.80;;;;;;;26.61;31.82;98808.09;4451486;32;20121;-72
2022/06/06 12:02:20;;;;;;;3.00;2.62;;;;;;;26.39;34.08;98802.59;4451493;32;20112;-71
2022/06/06 12:04:50;;;;;;;3.25;2.95;;;;;;;26.36;33.37;98805.78;4451378;32;20431;-72
2022/06/06 12:07:39;;;;;;;3.10;2.80;;;;;;;26.50;34.14;98804.41;4451164;32;20125;-72
2022/06/06 12:10:26;;;;;;;3.47;2.83;;;;;;;26.81;35.95;98798.78;4450887;32;20128;-72
2022/06/06 12:13:16;;;;;;;5.47;2.50;;;;;;;26.90;35.05;98795.47;4451228;32;20084;-72
2022/06/06 12:16:15;;;;;;;3.15;2.80;;;;;;;26.85;34.72;98798.06;4452362;31;20107;-72
2022/06/06 12:18:58;;;;;;;2.95;2.75;;;;;;;26.92;33.51;98787.16;4502136;31;20099;-72
2022/06/06 12:21:44;;;;;;;;;;;;;;;26.88;35.99;98786.03;4502653;31;20100;-72
2022/06/06 12:24:26;;;;;;;2.45;2.20;;;;;;;26.77;33.66;98782.34;4516386;31;19966;-72
2022/06/06 12:27:03;;;;;;;2.80;2.55;;;;;;;26.79;32.30;98782.09;4489108;31;20223;-72
2022/06/06 12:29:54;;;;;;;2.53;2.33;;;;;;;26.90;32.51;98779.34;4515865;31;20143;-72
2022/06/06 12:33:03;;;;;;;4.05;2.80;;;;;;;27.55;29.61;98784.38;4489343;31;20157;-72
2022/06/06 12:35:36;;;;;;;3.55;3.25;;;;;;;27.88;32.83;98778.06;4466398;32;20386;-72
2022/06/06 12:38:50;;;;;;;4.85;3.75;;;;;;;27.93;33.61;98771.94;4466594;32;20122;-72
2022/06/06 12:41:24;;;;;;;4.33;3.37;;;;;;;27.41;36.17;98778.53;4404698;32;20109;-72
2022/06/06 12:44:02;;;;;;;3.78;3.47;;;;;;;27.07;36.52;98775.81;4404798;32;20194;-72
2022/06/06 12:46:42;;;;;;;5.55;3.42;;;;;;;27.05;38.18;98778.75;4404419;32;20453;-72
2022/06/06 12:49:48;;;;;;;3.45;3.15;;;;;;;27.27;38.46;98772.66;4404703;32;20601;-72
2022/06/06 12:53:09;;;;;;;4.07;3.60;;;;;;;27.03;36.81;98767.44;4329631;33;20112;-72
2022/06/06 12:56:25;;;;;;;4.53;3.10;;;;;;;26.90;37.79;98767.75;4300498;33;20588;-72
2022/06/06 12:59:24;;;;;;;3.72;3.17;;;;;;;27.00;35.59;98759.06;4290831;33;20093;-72